createdAt,value
2023-02-19T00:00:00.468Z,100375.87
2023-02-19T00:02:29.123Z,100379.29
2023-02-19T00:04:57.420Z,100391.73
2023-02-19T00:07:25.798Z,100406.08
2023-02-19T00:09:54.390Z,100406.84
2023-02-19T00:12:22.747Z,100408.84
2023-02-19T00:14:50.947Z,100411.42
2023-02-19T00:17:19.220Z,100414.06
2023-02-19T00:19:47.415Z,100419.27
2023-02-19T00:22:15.686Z,100424.04
2023-02-19T00:24:44.183Z,100428.27
2023-02-19T00:27:12.660Z,100425.91
2023-02-19T00:29:41.176Z,100423.55
2023-02-19T00:32:09.557Z,100426.02
2023-02-19T00:34:37.914Z,100427.29
2023-02-19T00:37:06.097Z,100418.00
2023-02-19T00:39:34.581Z,100411.33
2023-02-19T00:42:03.073Z,100410.73
2023-02-19T00:44:31.866Z,100405.41
2023-02-19T00:47:00.248Z,100403.68
2023-02-19T00:49:28.819Z,100398.91
2023-02-19T00:51:57.224Z,100398.91
2023-02-19T00:54:25.710Z,100393.70
2023-02-19T00:56:54.096Z,100396.43
2023-02-19T00:59:22.479Z,100384.60
2023-02-19T01:01:51.047Z,100380.50
2023-02-19T01:04:19.844Z,100379.73
2023-02-19T01:06:49.212Z,100380.83
2023-02-19T01:09:17.652Z,100381.02
2023-02-19T01:11:46.242Z,100382.79
2023-02-19T01:14:14.933Z,100384.56
2023-02-19T01:16:43.526Z,100389.36
2023-02-19T01:19:12.386Z,100393.84
2023-02-19T01:21:41.795Z,100406.52
2023-02-19T01:24:11.444Z,100402.32
2023-02-19T01:26:40.911Z,100399.80
2023-02-19T01:29:10.045Z,100406.06
2023-02-19T01:31:41.116Z,100406.15
2023-02-19T01:34:12.178Z,100412.83
2023-02-19T01:36:41.233Z,100413.95
2023-02-19T01:39:11.244Z,100414.26
2023-02-19T01:41:41.897Z,100419.19
2023-02-19T01:44:18.672Z,100418.70
2023-02-19T01:46:48.801Z,100419.83
2023-02-19T01:49:26.394Z,100430.04
2023-02-19T01:52:15.130Z,100427.61
2023-02-19T01:54:45.764Z,100432.27
2023-02-19T01:57:19.791Z,100432.80
2023-02-19T01:59:55.018Z,100431.63
2023-02-19T02:02:28.680Z,100431.27
2023-02-19T02:05:00.325Z,100425.44
2023-02-19T02:07:47.682Z,100422.91
2023-02-19T02:10:22.292Z,100428.91
2023-02-19T02:12:52.784Z,100433.39
2023-02-19T02:15:22.598Z,100436.14
2023-02-19T02:18:05.956Z,100432.05
2023-02-19T02:21:19.319Z,100440.38
2023-02-19T02:24:09.648Z,100456.35
2023-02-19T02:26:56.510Z,100473.36
2023-02-19T02:30:03.329Z,100488.83
2023-02-19T02:33:05.263Z,100502.66
2023-02-19T02:35:40.055Z,100527.83
2023-02-19T02:38:11.877Z,100551.66
2023-02-19T02:40:43.730Z,100569.30
2023-02-19T02:43:13.286Z,100569.23
2023-02-19T02:45:42.270Z,100575.88
2023-02-19T02:48:31.552Z,100573.66
2023-02-19T02:51:21.525Z,100571.80
2023-02-19T02:54:21.732Z,100577.09
2023-02-19T02:56:51.470Z,100579.34
2023-02-19T02:59:25.243Z,100576.37
2023-02-19T03:02:14.458Z,100578.09
2023-02-19T03:05:32.229Z,100580.03
2023-02-19T03:08:06.545Z,100582.80
2023-02-19T03:11:20.776Z,100593.44
2023-02-19T03:14:12.695Z,100596.98
2023-02-19T03:17:04.429Z,100600.95
2023-02-19T03:19:38.937Z,100605.42
2023-02-19T03:22:20.333Z,100606.77
2023-02-19T03:25:16.133Z,100607.50
2023-02-19T03:27:46.983Z,100607.73
2023-02-19T03:30:21.818Z,100616.27
2023-02-19T03:32:57.654Z,100625.09
2023-02-19T03:35:30.878Z,100631.17
2023-02-19T03:38:26.716Z,100628.25
2023-02-19T03:41:11.871Z,100620.50
2023-02-19T03:43:51.975Z,100630.53
2023-02-19T03:46:35.558Z,100638.89
2023-02-19T03:49:24.865Z,100640.25
2023-02-19T03:52:45.763Z,100631.66
2023-02-19T03:55:23.062Z,100630.77
2023-02-19T03:57:58.292Z,100623.15
2023-02-19T04:00:44.382Z,100608.73
2023-02-19T04:03:47.041Z,100610.08
2023-02-19T04:06:22.993Z,100616.94
2023-02-19T04:08:56.501Z,100626.92
2023-02-19T04:11:27.039Z,100627.41
2023-02-19T04:14:15.379Z,100631.66
2023-02-19T04:16:45.873Z,100635.63
2023-02-19T04:19:18.691Z,100647.31
2023-02-19T04:21:50.755Z,100650.23
2023-02-19T04:24:35.005Z,100667.86
2023-02-19T04:27:05.034Z,100669.70
2023-02-19T04:29:33.507Z,100667.70
2023-02-19T04:32:01.900Z,100671.56
2023-02-19T04:34:32.429Z,100676.66
2023-02-19T04:37:00.911Z,100683.34
2023-02-19T04:39:29.296Z,100679.34
2023-02-19T04:41:58.392Z,100686.73
2023-02-19T04:44:27.186Z,100687.04
2023-02-19T04:46:56.200Z,100692.73
2023-02-19T04:49:25.496Z,100706.39
2023-02-19T04:51:53.872Z,100706.42
2023-02-19T04:54:22.059Z,100707.52
2023-02-19T04:56:50.968Z,100710.64
2023-02-19T04:59:19.337Z,100711.73
2023-02-19T05:01:47.680Z,100709.73
2023-02-19T05:04:16.265Z,100707.40
2023-02-19T05:06:44.804Z,100712.77
2023-02-19T05:09:13.083Z,100716.74
2023-02-19T05:11:41.584Z,100722.04
2023-02-19T05:14:09.746Z,100728.08
2023-02-19T05:16:38.028Z,100732.70
2023-02-19T05:19:06.205Z,100751.34
2023-02-19T05:21:34.598Z,100756.61
2023-02-19T05:24:02.875Z,100768.98
2023-02-19T05:26:31.481Z,100791.42
2023-02-19T05:29:00.157Z,100798.93
2023-02-19T05:31:29.207Z,100795.89
2023-02-19T05:33:57.942Z,100792.73
2023-02-19T05:36:26.841Z,100800.59
2023-02-19T05:38:59.099Z,100808.39
2023-02-19T05:41:29.339Z,100815.48
2023-02-19T05:43:58.765Z,100823.81
2023-02-19T05:46:30.165Z,100828.38
2023-02-19T05:48:59.830Z,100833.48
2023-02-19T05:51:28.637Z,100840.55
2023-02-19T05:53:57.928Z,100847.80
2023-02-19T05:56:26.298Z,100851.95
2023-02-19T05:58:55.195Z,100859.00
2023-02-19T06:01:26.126Z,100865.58
2023-02-19T06:03:57.360Z,100866.16
2023-02-19T06:06:27.054Z,100869.98
2023-02-19T06:08:55.593Z,100886.49
2023-02-19T06:11:24.900Z,100898.87
2023-02-19T06:13:53.171Z,100893.92
2023-02-19T06:16:22.342Z,100892.60
2023-02-19T06:18:50.865Z,100884.66
2023-02-19T06:21:20.122Z,100884.85
2023-02-19T06:23:48.490Z,100881.58
2023-02-19T06:26:23.084Z,100869.45
2023-02-19T06:28:53.609Z,100863.34
2023-02-19T06:31:24.130Z,100856.96
2023-02-19T06:33:52.764Z,100867.81
2023-02-19T06:36:22.189Z,100874.61
2023-02-19T06:38:51.281Z,100876.12
2023-02-19T06:41:19.639Z,100875.69
2023-02-19T06:43:48.426Z,100869.21
2023-02-19T06:46:17.244Z,100860.98
2023-02-19T06:48:46.342Z,100850.58
2023-02-19T06:51:24.024Z,100854.05
2023-02-19T06:53:52.406Z,100845.22
2023-02-19T06:56:29.712Z,100842.77
2023-02-19T06:59:00.630Z,100830.36
2023-02-19T07:01:32.801Z,100815.29
2023-02-19T07:04:01.938Z,100790.80
2023-02-19T07:06:30.791Z,100792.42
2023-02-19T07:08:59.606Z,100794.59
2023-02-19T07:11:31.675Z,100793.77
2023-02-19T07:14:03.007Z,100799.02
2023-02-19T07:16:32.060Z,100805.42
2023-02-19T07:19:06.471Z,100809.20
2023-02-19T07:21:38.002Z,100815.39
2023-02-19T07:24:07.397Z,100806.20
2023-02-19T07:26:35.900Z,100803.19
2023-02-19T07:29:04.980Z,100801.54
2023-02-19T07:31:33.523Z,100817.12
2023-02-19T07:34:01.753Z,100823.46
2023-02-19T07:36:30.335Z,100826.46
2023-02-19T07:39:00.097Z,100832.31
2023-02-19T07:41:28.548Z,100832.52
2023-02-19T07:43:59.385Z,100836.41
2023-02-19T07:46:28.070Z,100827.64
2023-02-19T07:48:56.665Z,100834.62
2023-02-19T07:51:26.073Z,100846.16
2023-02-19T07:53:54.456Z,100835.52
2023-02-19T07:56:22.844Z,100834.73
2023-02-19T07:58:51.123Z,100828.67
2023-02-19T08:01:44.338Z,100826.52
2023-02-19T08:04:26.779Z,100836.08
2023-02-19T08:06:55.376Z,100853.04
2023-02-19T08:09:23.546Z,100854.81
2023-02-19T08:12:10.874Z,100848.17
2023-02-19T08:14:39.260Z,100834.73
2023-02-19T08:17:07.864Z,100829.50
2023-02-19T08:19:36.422Z,100815.48
2023-02-19T08:22:04.912Z,100802.77
2023-02-19T08:24:34.212Z,100797.44
2023-02-19T08:27:02.502Z,100797.26
2023-02-19T08:29:31.086Z,100806.00
2023-02-19T08:31:59.596Z,100799.64
2023-02-19T08:34:28.163Z,100802.60
2023-02-19T08:36:56.655Z,100803.30
2023-02-19T08:39:24.836Z,100811.66
2023-02-19T08:41:53.232Z,100821.84
2023-02-19T08:44:21.800Z,100828.77
2023-02-19T08:46:51.212Z,100831.25
2023-02-19T08:49:20.015Z,100829.98
2023-02-19T08:51:48.803Z,100833.70
2023-02-19T08:54:17.285Z,100827.56
2023-02-19T08:56:45.679Z,100818.60
2023-02-19T08:59:13.951Z,100811.20
2023-02-19T09:01:42.170Z,100813.77
2023-02-19T09:04:13.240Z,100813.07
2023-02-19T09:06:41.553Z,100802.81
2023-02-19T09:09:09.841Z,100795.05
2023-02-19T09:11:41.228Z,100791.33
2023-02-19T09:14:09.877Z,100786.80
2023-02-19T09:16:38.264Z,100780.85
2023-02-19T09:19:06.648Z,100774.65
2023-02-19T09:21:35.031Z,100762.46
2023-02-19T09:24:03.938Z,100756.21
2023-02-19T09:26:32.314Z,100754.09
2023-02-19T09:29:00.704Z,100743.25
2023-02-19T09:31:29.208Z,100745.33
2023-02-19T09:33:57.572Z,100731.59
2023-02-19T09:36:26.167Z,100733.31
2023-02-19T09:38:54.649Z,100729.53
2023-02-19T09:41:34.289Z,100731.64
2023-02-19T09:44:06.888Z,100729.23
2023-02-19T09:46:42.558Z,100733.92
2023-02-19T09:49:25.108Z,100748.06
2023-02-19T09:52:08.165Z,100746.85
2023-02-19T09:54:38.689Z,100756.68
2023-02-19T09:57:15.383Z,100762.61
2023-02-19T09:59:52.026Z,100771.71
2023-02-19T10:02:24.321Z,100768.95
2023-02-19T10:04:53.962Z,100773.15
2023-02-19T10:07:33.445Z,100779.13
2023-02-19T10:10:14.336Z,100769.56
2023-02-19T10:12:50.693Z,100770.88
2023-02-19T10:15:31.452Z,100770.77
2023-02-19T10:18:00.177Z,100767.36
2023-02-19T10:20:28.424Z,100757.92
2023-02-19T10:23:08.273Z,100758.25
2023-02-19T10:25:40.437Z,100753.32
2023-02-19T10:28:17.215Z,100742.71
2023-02-19T10:30:52.233Z,100741.13
2023-02-19T10:33:21.831Z,100739.59
2023-02-19T10:35:57.727Z,100730.71
2023-02-19T10:38:48.307Z,100714.88
2023-02-19T10:41:20.989Z,100712.20
2023-02-19T10:44:15.270Z,100713.71
2023-02-19T10:46:51.092Z,100701.44
2023-02-19T10:49:35.923Z,100694.00
2023-02-19T10:52:18.106Z,100690.09
2023-02-19T10:54:52.291Z,100689.20
2023-02-19T10:57:30.245Z,100690.10
2023-02-19T11:00:15.365Z,100687.46
2023-02-19T11:02:45.361Z,100686.89
2023-02-19T11:05:16.861Z,100683.08
2023-02-19T11:07:47.480Z,100673.68
2023-02-19T11:10:28.260Z,100670.63
2023-02-19T11:13:02.463Z,100669.02
2023-02-19T11:15:34.223Z,100668.00
2023-02-19T11:18:22.365Z,100664.85
2023-02-19T11:21:02.319Z,100656.00
2023-02-19T11:23:36.083Z,100653.02
2023-02-19T11:26:16.282Z,100652.27
2023-02-19T11:28:44.850Z,100649.27
2023-02-19T11:31:23.087Z,100644.48
2023-02-19T11:34:26.301Z,100648.46
2023-02-19T11:37:13.763Z,100642.13
2023-02-19T11:39:47.605Z,100634.89
2023-02-19T11:42:39.602Z,100630.94
2023-02-19T11:45:20.780Z,100624.48
2023-02-19T11:48:13.932Z,100627.63
2023-02-19T11:51:20.166Z,100625.25
2023-02-19T11:54:01.245Z,100623.10
2023-02-19T11:56:39.359Z,100626.35
2023-02-19T11:59:38.745Z,100626.96
2023-02-19T12:02:25.644Z,100629.29
2023-02-19T12:04:56.936Z,100632.28
2023-02-19T12:07:46.982Z,100628.27
2023-02-19T12:10:32.864Z,100621.09
2023-02-19T12:13:27.647Z,100611.14
2023-02-19T12:16:18.248Z,100611.62
2023-02-19T12:19:14.864Z,100604.88
2023-02-19T12:21:56.758Z,100601.98
2023-02-19T12:24:43.254Z,100598.86
2023-02-19T12:27:33.745Z,100595.80
2023-02-19T12:30:35.809Z,100593.12
2023-02-19T12:33:42.768Z,100589.60
2023-02-19T12:36:37.659Z,100591.31
2023-02-19T12:39:15.446Z,100593.23
2023-02-19T12:41:53.582Z,100585.30
2023-02-19T12:44:45.291Z,100575.50
2023-02-19T12:47:23.688Z,100578.85
2023-02-19T12:50:08.743Z,100577.77
2023-02-19T12:52:41.982Z,100571.95
2023-02-19T12:55:26.073Z,100560.07
2023-02-19T12:57:55.782Z,100555.88
2023-02-19T13:00:44.247Z,100556.27
2023-02-19T13:03:31.046Z,100554.94
2023-02-19T13:06:03.628Z,100548.12
2023-02-19T13:08:42.124Z,100553.13
2023-02-19T13:11:25.203Z,100560.42
2023-02-19T13:14:19.792Z,100560.39
2023-02-19T13:16:50.112Z,100559.90
2023-02-19T13:19:18.459Z,100557.83
2023-02-19T13:22:17.030Z,100556.52
2023-02-19T13:24:47.161Z,100556.11
2023-02-19T13:27:33.038Z,100560.45
2023-02-19T13:30:32.964Z,100556.80
2023-02-19T13:33:04.292Z,100560.31
2023-02-19T13:36:11.050Z,100561.17
2023-02-19T13:38:43.499Z,100561.29
2023-02-19T13:41:50.558Z,100558.12
2023-02-19T13:44:22.293Z,100555.32
2023-02-19T13:46:51.663Z,100550.86
2023-02-19T13:49:29.262Z,100538.14
2023-02-19T13:52:22.610Z,100530.63
2023-02-19T13:54:51.607Z,100522.48
2023-02-19T13:57:26.646Z,100523.20
2023-02-19T13:59:57.291Z,100519.45
2023-02-19T14:02:31.563Z,100520.58
2023-02-19T14:05:01.754Z,100518.35
2023-02-19T14:07:49.558Z,100517.20
2023-02-19T14:10:49.152Z,100517.33
2023-02-19T14:13:52.528Z,100512.13
2023-02-19T14:16:56.011Z,100505.23
2023-02-19T14:19:56.636Z,100497.73
2023-02-19T14:22:55.563Z,100492.41
2023-02-19T14:25:49.541Z,100496.62
2023-02-19T14:28:24.202Z,100490.17
2023-02-19T14:30:58.679Z,100479.98
2023-02-19T14:33:34.240Z,100478.35
2023-02-19T14:36:31.316Z,100482.02
2023-02-19T14:39:06.979Z,100481.09
2023-02-19T14:41:40.073Z,100479.39
2023-02-19T14:44:18.171Z,100476.58
2023-02-19T14:46:50.645Z,100472.52
2023-02-19T14:49:45.956Z,100475.39
2023-02-19T14:52:44.626Z,100471.34
2023-02-19T14:55:37.458Z,100471.52
2023-02-19T14:58:11.070Z,100467.12
2023-02-19T15:00:42.973Z,100463.30
2023-02-19T15:03:34.254Z,100462.75
2023-02-19T15:06:14.287Z,100458.45
2023-02-19T15:08:45.839Z,100456.95
2023-02-19T15:11:21.293Z,100450.28
2023-02-19T15:13:58.485Z,100444.79
2023-02-19T15:16:29.134Z,100443.01
2023-02-19T15:19:00.149Z,100436.98
2023-02-19T15:21:32.013Z,100430.91
2023-02-19T15:24:03.312Z,100444.21
2023-02-19T15:26:55.085Z,100445.77
2023-02-19T15:29:26.131Z,100443.80
2023-02-19T15:32:03.359Z,100439.30
2023-02-19T15:35:00.707Z,100439.85
2023-02-19T15:37:33.868Z,100435.34
2023-02-19T15:40:07.861Z,100433.39
2023-02-19T15:42:38.407Z,100430.73
2023-02-19T15:45:25.922Z,100430.61
2023-02-19T15:48:18.407Z,100427.45
2023-02-19T15:50:57.793Z,100430.14
2023-02-19T15:53:31.402Z,100426.80
2023-02-19T15:56:09.821Z,100425.33
2023-02-19T15:58:46.285Z,100425.79
2023-02-19T16:01:27.163Z,100422.34
2023-02-19T16:03:56.720Z,100423.17
2023-02-19T16:06:27.005Z,100422.48
2023-02-19T16:09:02.252Z,100424.58
2023-02-19T16:11:39.821Z,100418.94
2023-02-19T16:14:28.088Z,100415.92
2023-02-19T16:17:05.037Z,100416.41
2023-02-19T16:20:02.207Z,100421.40
2023-02-19T16:22:35.142Z,100417.50
2023-02-19T16:25:06.954Z,100414.63
2023-02-19T16:27:38.662Z,100410.73
2023-02-19T16:30:18.169Z,100411.16
2023-02-19T16:32:47.130Z,100419.54
2023-02-19T16:35:40.104Z,100428.23
2023-02-19T16:38:17.051Z,100425.33
2023-02-19T16:40:48.196Z,100425.05
2023-02-19T16:43:28.047Z,100426.23
2023-02-19T16:45:57.788Z,100426.84
2023-02-19T16:48:26.352Z,100431.05
2023-02-19T16:50:55.247Z,100432.30
2023-02-19T16:53:29.054Z,100426.91
2023-02-19T16:55:57.534Z,100425.98
2023-02-19T16:58:26.980Z,100428.04
2023-02-19T17:00:56.334Z,100420.10
2023-02-19T17:03:26.025Z,100414.52
2023-02-19T17:05:54.653Z,100416.19
2023-02-19T17:08:29.680Z,100410.73
2023-02-19T17:10:59.362Z,100411.41
2023-02-19T17:13:29.505Z,100416.70
2023-02-19T17:15:58.414Z,100422.36
2023-02-19T17:18:27.047Z,100418.93
2023-02-19T17:21:00.619Z,100419.52
2023-02-19T17:23:29.316Z,100429.73
2023-02-19T17:25:57.899Z,100433.41
2023-02-19T17:28:26.385Z,100433.43
2023-02-19T17:30:54.875Z,100433.60
2023-02-19T17:33:23.463Z,100437.03
2023-02-19T17:35:51.744Z,100440.27
2023-02-19T17:38:20.129Z,100435.02
2023-02-19T17:40:48.406Z,100424.50
2023-02-19T17:43:17.504Z,100424.33
2023-02-19T17:45:45.944Z,100431.23
2023-02-19T17:48:15.605Z,100433.44
2023-02-19T17:50:44.722Z,100437.40
2023-02-19T17:53:20.739Z,100440.04
2023-02-19T17:55:49.667Z,100440.64
2023-02-19T17:58:18.065Z,100447.03
2023-02-19T18:00:46.437Z,100442.55
2023-02-19T18:03:14.877Z,100444.89
2023-02-19T18:05:43.306Z,100455.17
2023-02-19T18:08:11.900Z,100455.77
2023-02-19T18:10:40.481Z,100470.50
2023-02-19T18:13:09.548Z,100506.70
2023-02-19T18:15:37.762Z,100529.72
2023-02-19T18:18:06.248Z,100529.08
2023-02-19T18:20:35.257Z,100528.72
2023-02-19T18:23:03.740Z,100530.14
2023-02-19T18:25:32.117Z,100532.68
2023-02-19T18:28:00.307Z,100535.50
2023-02-19T18:30:29.974Z,100539.27
2023-02-19T18:32:58.611Z,100546.95
2023-02-19T18:35:26.888Z,100554.14
2023-02-19T18:37:56.056Z,100561.78
2023-02-19T18:40:28.572Z,100566.83
2023-02-19T18:42:57.154Z,100564.74
2023-02-19T18:45:26.022Z,100570.14
2023-02-19T18:47:54.638Z,100575.42
2023-02-19T18:50:23.441Z,100580.45
2023-02-19T18:52:51.932Z,100579.13
2023-02-19T18:55:20.303Z,100583.17
2023-02-19T18:57:51.657Z,100588.50
2023-02-19T19:00:26.547Z,100591.49
2023-02-19T19:02:57.125Z,100601.00
2023-02-19T19:05:26.647Z,100610.38
2023-02-19T19:07:56.671Z,100622.27
2023-02-19T19:10:25.692Z,100639.91
2023-02-19T19:12:54.665Z,100653.45
2023-02-19T19:15:23.773Z,100660.61
2023-02-19T19:17:52.873Z,100668.26
2023-02-19T19:20:23.728Z,100686.77
2023-02-19T19:22:53.368Z,100690.08
2023-02-19T19:25:23.225Z,100709.27
2023-02-19T19:27:57.556Z,100715.80
2023-02-19T19:30:26.042Z,100719.34
2023-02-19T19:32:55.345Z,100725.39
2023-02-19T19:35:23.727Z,100721.30
2023-02-19T19:37:51.910Z,100733.67
2023-02-19T19:40:20.904Z,100735.59
2023-02-19T19:42:52.292Z,100750.23
2023-02-19T19:45:21.079Z,100761.54
2023-02-19T19:47:49.984Z,100771.81
2023-02-19T19:50:19.321Z,100774.63
2023-02-19T19:52:47.639Z,100788.97
2023-02-19T19:55:16.582Z,100801.85
2023-02-19T19:57:45.116Z,100814.23
2023-02-19T20:00:17.899Z,100825.52
2023-02-19T20:02:47.127Z,100830.70
2023-02-19T20:05:16.985Z,100840.27
2023-02-19T20:07:45.944Z,100846.38
2023-02-19T20:10:17.029Z,100853.94
2023-02-19T20:12:45.963Z,100876.45
2023-02-19T20:15:19.669Z,100884.36
2023-02-19T20:17:48.460Z,100889.89
2023-02-19T20:20:19.682Z,100898.14
2023-02-19T20:22:48.005Z,100905.63
2023-02-19T20:25:16.503Z,100908.42
2023-02-19T20:27:44.967Z,100918.48
2023-02-19T20:30:15.358Z,100925.17
2023-02-19T20:32:44.038Z,100925.89
2023-02-19T20:35:12.880Z,100928.33
2023-02-19T20:37:41.674Z,100935.48
2023-02-19T20:40:12.251Z,100942.63
2023-02-19T20:42:41.000Z,100956.52
2023-02-19T20:45:09.499Z,100961.55
2023-02-19T20:47:40.257Z,100969.55
2023-02-19T20:50:09.020Z,100979.42
2023-02-19T20:52:37.407Z,100992.50
2023-02-19T20:55:06.440Z,100999.33
2023-02-19T20:57:35.102Z,101005.67
2023-02-19T21:00:05.012Z,101015.17
2023-02-19T21:02:33.418Z,101022.64
2023-02-19T21:05:02.214Z,101030.36
2023-02-19T21:07:31.101Z,101032.44
2023-02-19T21:09:59.581Z,101039.32
2023-02-19T21:12:27.959Z,101049.41
2023-02-19T21:14:56.245Z,101061.48
2023-02-19T21:17:24.726Z,101068.27
2023-02-19T21:19:53.117Z,101066.92
2023-02-19T21:22:21.495Z,101064.48
2023-02-19T21:24:52.232Z,101063.77
2023-02-19T21:27:20.939Z,101063.85
2023-02-19T21:29:49.314Z,101065.97
2023-02-19T21:32:17.941Z,101072.87
2023-02-19T21:34:46.386Z,101077.13
2023-02-19T21:37:14.874Z,101068.15
2023-02-19T21:39:43.254Z,101072.67
2023-02-19T21:42:11.550Z,101078.76
2023-02-19T21:44:42.990Z,101080.86
2023-02-19T21:47:12.954Z,101086.48
2023-02-19T21:49:43.239Z,101095.54
2023-02-19T21:52:11.830Z,101104.95
2023-02-19T21:54:40.320Z,101111.39
2023-02-19T21:57:09.675Z,101119.20
2023-02-19T21:59:37.924Z,101116.43
2023-02-19T22:02:06.705Z,101127.68
2023-02-19T22:04:35.095Z,101125.55
2023-02-19T22:07:03.981Z,101130.88
2023-02-19T22:09:32.262Z,101134.98
2023-02-19T22:12:00.647Z,101144.33
2023-02-19T22:14:29.125Z,101141.52
2023-02-19T22:16:57.534Z,101142.55
2023-02-19T22:19:25.995Z,101141.42
2023-02-19T22:21:54.487Z,101144.66
2023-02-19T22:24:23.079Z,101149.01
2023-02-19T22:26:56.377Z,101148.56
2023-02-19T22:29:25.176Z,101148.69
2023-02-19T22:31:53.601Z,101146.87
2023-02-19T22:34:22.340Z,101151.00
2023-02-19T22:36:51.049Z,101157.35
2023-02-19T22:39:25.663Z,101165.19
2023-02-19T22:41:54.310Z,101169.88
2023-02-19T22:44:22.747Z,101166.83
2023-02-19T22:46:54.921Z,101172.48
2023-02-19T22:49:24.485Z,101167.41
2023-02-19T22:52:05.916Z,101163.63
2023-02-19T22:54:37.886Z,101160.05
2023-02-19T22:57:06.452Z,101159.94
2023-02-19T22:59:34.851Z,101165.44
2023-02-19T23:02:03.229Z,101159.03
2023-02-19T23:04:31.475Z,101161.59
2023-02-19T23:06:59.898Z,101159.94
2023-02-19T23:09:29.508Z,101151.66
2023-02-19T23:12:02.886Z,101155.84
2023-02-19T23:14:31.294Z,101151.14
2023-02-19T23:17:00.168Z,101152.03
2023-02-19T23:19:28.575Z,101154.70
2023-02-19T23:21:57.191Z,101156.49
2023-02-19T23:24:26.066Z,101158.32
2023-02-19T23:26:54.773Z,101162.75
2023-02-19T23:29:26.820Z,101167.27
2023-02-19T23:31:55.374Z,101168.95
2023-02-19T23:34:24.713Z,101169.10
2023-02-19T23:36:54.734Z,101164.11
2023-02-19T23:39:23.221Z,101164.98
2023-02-19T23:41:54.505Z,101164.25
2023-02-19T23:44:25.519Z,101171.09
2023-02-19T23:46:54.709Z,101170.73
2023-02-19T23:49:23.301Z,101166.15
2023-02-19T23:51:52.000Z,101169.67
2023-02-19T23:54:20.688Z,101168.55
2023-02-19T23:56:49.399Z,101172.39
2023-02-19T23:59:17.759Z,101170.55
